createdAt,value
2018-05-09T00:01:07.776Z,14.30
2018-05-09T00:03:37.637Z,14.30
2018-05-09T00:06:07.109Z,14.30
2018-05-09T00:08:36.570Z,14.30
2018-05-09T00:11:06.036Z,14.30
2018-05-09T00:13:35.488Z,14.30
2018-05-09T00:16:05.341Z,14.20
2018-05-09T00:18:34.789Z,14.20
2018-05-09T00:21:05.161Z,14.10
2018-05-09T00:23:34.744Z,14.10
2018-05-09T00:26:04.191Z,14.00
2018-05-09T00:28:33.650Z,14.00
2018-05-09T00:31:03.529Z,14.00
2018-05-09T00:33:33.033Z,14.00
2018-05-09T00:36:02.469Z,13.90
2018-05-09T00:38:31.592Z,13.90
2018-05-09T00:41:01.034Z,13.90
2018-05-09T00:43:30.488Z,13.90
2018-05-09T00:45:59.929Z,13.80
2018-05-09T00:48:29.382Z,13.90
2018-05-09T00:50:58.829Z,13.80
2018-05-09T00:53:28.661Z,13.80
2018-05-09T00:55:58.495Z,13.70
2018-05-09T00:58:27.968Z,13.70
2018-05-09T01:00:57.408Z,13.70
2018-05-09T01:03:26.865Z,13.70
2018-05-09T01:05:56.330Z,13.60
2018-05-09T01:08:25.552Z,13.60
2018-05-09T01:10:54.996Z,13.60
2018-05-09T01:13:24.881Z,13.60
2018-05-09T01:15:54.309Z,13.70
2018-05-09T01:18:23.769Z,13.60
2018-05-09T01:20:53.246Z,13.60
2018-05-09T01:23:22.693Z,13.50
2018-05-09T01:25:51.899Z,13.40
2018-05-09T01:28:21.157Z,13.50
2018-05-09T01:30:51.306Z,13.40
2018-05-09T01:33:20.757Z,13.40
2018-05-09T01:35:50.214Z,13.40
2018-05-09T01:38:20.066Z,13.40
2018-05-09T01:40:49.501Z,13.30
2018-05-09T01:43:18.977Z,13.40
2018-05-09T01:45:48.181Z,13.30
2018-05-09T01:48:17.833Z,13.30
2018-05-09T01:50:47.016Z,13.30
2018-05-09T01:53:16.442Z,13.30
2018-05-09T01:55:45.880Z,13.20
2018-05-09T01:58:15.721Z,13.20
2018-05-09T02:00:45.195Z,13.20
2018-05-09T02:03:14.717Z,13.10
2018-05-09T02:05:44.316Z,13.20
2018-05-09T02:08:13.791Z,13.20
2018-05-09T02:10:43.642Z,13.10
2018-05-09T02:13:13.096Z,13.10
2018-05-09T02:15:42.554Z,13.10
2018-05-09T02:18:12.173Z,13.10
2018-05-09T02:20:41.661Z,13.00
2018-05-09T02:23:11.181Z,13.00
2018-05-09T02:25:40.654Z,13.00
2018-05-09T02:28:10.521Z,13.10
2018-05-09T02:30:39.977Z,13.10
2018-05-09T02:33:09.476Z,13.10
2018-05-09T02:35:38.931Z,13.10
2018-05-09T02:38:08.133Z,13.00
2018-05-09T02:40:37.610Z,13.00
2018-05-09T02:43:07.057Z,12.90
2018-05-09T02:45:36.510Z,12.90
2018-05-09T02:48:06.365Z,12.90
2018-05-09T02:50:35.805Z,12.90
2018-05-09T02:53:04.945Z,12.80
2018-05-09T02:55:34.401Z,12.90
2018-05-09T02:58:04.261Z,12.80
2018-05-09T03:00:33.721Z,12.90
2018-05-09T03:03:03.166Z,12.80
2018-05-09T03:05:33.012Z,12.80
2018-05-09T03:08:02.466Z,12.70
2018-05-09T03:10:31.941Z,12.70
2018-05-09T03:13:01.793Z,12.70
2018-05-09T03:15:31.229Z,12.70
2018-05-09T03:18:00.673Z,12.70
2018-05-09T03:20:29.865Z,12.70
2018-05-09T03:22:59.845Z,12.80
2018-05-09T03:25:29.705Z,12.70
2018-05-09T03:27:58.933Z,12.70
2018-05-09T03:30:28.382Z,12.70
2018-05-09T03:32:57.833Z,12.70
2018-05-09T03:35:27.682Z,12.60
2018-05-09T03:37:57.118Z,12.60
2018-05-09T03:40:26.659Z,12.70
2018-05-09T03:42:56.125Z,12.60
2018-05-09T03:45:25.987Z,12.60
2018-05-09T03:47:55.437Z,12.60
2018-05-09T03:50:24.912Z,12.50
2018-05-09T03:52:54.345Z,12.50
2018-05-09T03:55:23.876Z,12.60
2018-05-09T03:57:53.322Z,12.50
2018-05-09T04:00:22.753Z,12.40
2018-05-09T04:03:03.476Z,12.50
2018-05-09T04:05:43.840Z,12.50
2018-05-09T04:08:26.009Z,12.40
2018-05-09T04:10:55.584Z,12.60
2018-05-09T04:13:25.709Z,12.50
2018-05-09T04:15:55.158Z,12.60
2018-05-09T04:18:24.628Z,12.70
2018-05-09T04:20:54.077Z,12.60
2018-05-09T04:23:23.724Z,12.70
2018-05-09T04:25:53.180Z,12.70
2018-05-09T04:28:22.637Z,12.70
2018-05-09T04:30:52.163Z,12.70
2018-05-09T04:33:21.642Z,12.60
2018-05-09T04:35:51.073Z,12.70
2018-05-09T04:38:20.932Z,12.70
2018-05-09T04:40:50.376Z,12.70
2018-05-09T04:43:19.836Z,12.80
2018-05-09T04:45:49.325Z,12.70
2018-05-09T04:48:18.823Z,12.80
2018-05-09T04:50:48.060Z,12.90
2018-05-09T04:53:17.511Z,12.90
2018-05-09T04:55:47.161Z,12.90
2018-05-09T04:58:16.656Z,13.00
2018-05-09T05:00:46.349Z,13.00
2018-05-09T05:03:15.576Z,13.10
2018-05-09T05:05:45.022Z,13.20
2018-05-09T05:08:14.556Z,13.20
2018-05-09T05:10:44.409Z,13.20
2018-05-09T05:13:13.853Z,13.20
2018-05-09T05:15:43.607Z,13.30
2018-05-09T05:18:13.403Z,13.30
2018-05-09T05:20:42.982Z,13.40
2018-05-09T05:23:12.953Z,13.50
2018-05-09T05:25:41.924Z,13.50
2018-05-09T05:28:12.006Z,13.70
2018-05-09T05:30:41.476Z,13.70
2018-05-09T05:33:11.448Z,13.90
2018-05-09T05:35:40.892Z,13.90
2018-05-09T05:38:10.325Z,14.00
2018-05-09T05:40:39.767Z,14.00
2018-05-09T05:43:08.979Z,14.10
2018-05-09T05:45:38.441Z,14.20
2018-05-09T05:48:07.883Z,14.30
2018-05-09T05:50:37.337Z,14.40
2018-05-09T05:53:07.217Z,14.70
2018-05-09T05:55:36.648Z,14.70
2018-05-09T05:58:06.106Z,14.90
2018-05-09T06:00:35.965Z,15.10
2018-05-09T06:03:05.405Z,15.10
2018-05-09T06:05:34.869Z,15.20
2018-05-09T06:08:04.083Z,15.30
2018-05-09T06:10:33.717Z,15.30
2018-05-09T06:13:03.575Z,15.60
2018-05-09T06:15:32.766Z,15.70
2018-05-09T06:18:02.653Z,15.90
2018-05-09T06:20:32.123Z,15.90
2018-05-09T06:23:02.016Z,16.10
2018-05-09T06:25:31.469Z,16.20
2018-05-09T06:28:01.334Z,16.30
2018-05-09T06:30:30.773Z,16.20
2018-05-09T06:33:00.221Z,16.40
2018-05-09T06:35:29.875Z,16.40
2018-05-09T06:37:59.312Z,16.50
2018-05-09T06:40:28.757Z,16.60
2018-05-09T06:42:58.306Z,16.60
2018-05-09T06:45:28.290Z,16.80
2018-05-09T06:47:57.461Z,16.70
2018-05-09T06:50:27.321Z,16.80
2018-05-09T06:52:56.781Z,16.90
2018-05-09T06:55:26.234Z,17.00
2018-05-09T06:57:56.109Z,17.00
2018-05-09T07:00:25.711Z,17.00
2018-05-09T07:02:54.911Z,17.10
2018-05-09T07:05:24.753Z,17.30
2018-05-09T07:07:54.228Z,17.40
2018-05-09T07:10:23.675Z,17.40
2018-05-09T07:12:53.575Z,17.70
2018-05-09T07:15:23.020Z,17.70
2018-05-09T07:17:52.883Z,18.00
2018-05-09T07:20:22.329Z,18.00
2018-05-09T07:22:51.785Z,18.40
2018-05-09T07:25:21.233Z,18.50
2018-05-09T07:27:50.676Z,18.70
2018-05-09T07:30:20.109Z,18.90
2018-05-09T07:32:49.554Z,18.90
2018-05-09T07:35:19.046Z,19.10
2018-05-09T07:37:48.476Z,19.50
2018-05-09T07:40:17.663Z,20.00
2018-05-09T07:42:47.490Z,20.70
2018-05-09T07:45:16.948Z,20.70
2018-05-09T07:47:46.430Z,21.00
2018-05-09T07:50:16.103Z,21.20
2018-05-09T07:52:45.549Z,21.40
2018-05-09T07:55:15.386Z,21.90
2018-05-09T07:57:44.861Z,21.90
2018-05-09T08:00:14.297Z,22.10
2018-05-09T08:02:44.156Z,22.40
2018-05-09T08:05:14.381Z,22.30
2018-05-09T08:07:44.235Z,22.60
2018-05-09T08:10:13.739Z,22.60
2018-05-09T08:12:43.271Z,22.70
2018-05-09T08:15:12.870Z,22.70
2018-05-09T08:17:42.723Z,23.00
2018-05-09T08:20:12.179Z,23.00
2018-05-09T08:22:41.640Z,23.10
2018-05-09T08:25:11.529Z,23.30
2018-05-09T08:27:40.957Z,23.30
2018-05-09T08:30:10.193Z,23.40
2018-05-09T08:32:39.634Z,23.60
2018-05-09T08:35:09.502Z,23.80
2018-05-09T08:37:38.948Z,23.80
2018-05-09T08:40:08.412Z,23.90
2018-05-09T08:42:37.877Z,24.00
2018-05-09T08:45:07.338Z,24.20
2018-05-09T08:47:37.181Z,24.50
2018-05-09T08:50:06.641Z,24.50
2018-05-09T08:52:36.281Z,24.60
2018-05-09T08:55:05.436Z,24.70
2018-05-09T08:57:35.603Z,24.80
2018-05-09T09:00:04.687Z,24.80
2018-05-09T09:02:34.141Z,24.80
2018-05-09T09:05:03.258Z,24.90
2018-05-09T09:07:32.704Z,25.10
2018-05-09T09:10:02.176Z,25.20
2018-05-09T09:12:31.633Z,25.20
2018-05-09T09:15:01.092Z,25.10
2018-05-09T09:17:30.951Z,25.50
2018-05-09T09:20:00.129Z,25.60
2018-05-09T09:22:29.737Z,26.10
2018-05-09T09:24:59.223Z,26.10
2018-05-09T09:27:29.602Z,26.30
2018-05-09T09:29:59.049Z,26.40
2018-05-09T09:32:28.512Z,26.50
2018-05-09T09:34:57.974Z,26.50
2018-05-09T09:37:27.803Z,26.50
2018-05-09T09:39:57.675Z,26.70
2018-05-09T09:42:27.136Z,26.70
2018-05-09T09:44:56.617Z,26.80
2018-05-09T09:47:26.060Z,26.70
2018-05-09T09:49:55.538Z,26.50
2018-05-09T09:52:24.981Z,26.70
2018-05-09T09:54:54.413Z,27.00
2018-05-09T09:57:23.900Z,27.30
2018-05-09T09:59:53.361Z,27.70
2018-05-09T10:02:22.776Z,28.00
2018-05-09T10:04:52.227Z,28.00
2018-05-09T10:07:22.072Z,27.90
2018-05-09T10:09:51.935Z,28.00
2018-05-09T10:12:21.388Z,28.00
2018-05-09T10:14:50.851Z,28.10
2018-05-09T10:17:20.316Z,28.10
2018-05-09T10:19:49.745Z,28.10
2018-05-09T10:22:19.229Z,28.00
2018-05-09T10:24:48.679Z,27.60
2018-05-09T10:27:18.117Z,27.60
2018-05-09T10:29:47.582Z,27.70
2018-05-09T10:32:17.039Z,28.00
2018-05-09T10:34:46.261Z,28.10
2018-05-09T10:37:15.732Z,28.30
2018-05-09T10:39:45.193Z,28.20
2018-05-09T10:42:14.637Z,28.10
2018-05-09T10:44:44.523Z,27.90
2018-05-09T10:47:13.980Z,28.00
2018-05-09T10:49:43.470Z,28.20
2018-05-09T10:52:13.025Z,28.80
2018-05-09T10:54:42.200Z,29.40
2018-05-09T10:57:11.708Z,29.70
2018-05-09T10:59:41.322Z,30.00
2018-05-09T11:02:10.773Z,30.40
2018-05-09T11:04:40.210Z,30.50
2018-05-09T11:07:09.654Z,30.80
2018-05-09T11:09:39.526Z,30.40
2018-05-09T11:12:08.712Z,30.40
2018-05-09T11:14:38.561Z,30.20
2018-05-09T11:17:08.010Z,30.20
2018-05-09T11:19:37.453Z,30.30
2018-05-09T11:22:06.913Z,30.20
2018-05-09T11:24:36.420Z,29.80
2018-05-09T11:27:06.445Z,29.70
2018-05-09T11:29:36.400Z,29.60
2018-05-09T11:32:05.872Z,29.60
2018-05-09T11:34:35.363Z,29.80
2018-05-09T11:37:04.789Z,30.00
2018-05-09T11:39:34.233Z,30.20
2018-05-09T11:42:03.679Z,30.20
2018-05-09T11:44:33.553Z,30.40
2018-05-09T11:47:03.014Z,30.40
2018-05-09T11:49:32.461Z,30.80
2018-05-09T11:52:01.913Z,30.80
2018-05-09T11:54:31.144Z,30.70
2018-05-09T11:57:00.576Z,30.60
2018-05-09T11:59:30.047Z,30.60
2018-05-09T12:01:59.307Z,30.80
2018-05-09T12:04:28.772Z,31.30
2018-05-09T12:06:58.237Z,31.60
2018-05-09T12:09:27.677Z,31.20
2018-05-09T12:11:57.156Z,31.20
2018-05-09T12:14:26.581Z,31.20
2018-05-09T12:16:56.019Z,31.00
2018-05-09T12:19:25.148Z,30.70
2018-05-09T12:21:54.609Z,30.70
2018-05-09T12:24:24.082Z,30.80
2018-05-09T12:26:53.540Z,30.90
2018-05-09T12:29:23.003Z,30.90
2018-05-09T12:31:52.439Z,30.50
2018-05-09T12:34:21.894Z,30.30
2018-05-09T12:36:51.747Z,30.10
2018-05-09T12:39:20.933Z,30.20
2018-05-09T12:41:50.764Z,30.40
2018-05-09T12:44:20.609Z,30.60
2018-05-09T12:46:50.077Z,30.60
2018-05-09T12:49:19.533Z,30.60
2018-05-09T12:51:49.398Z,30.30
2018-05-09T12:54:18.868Z,30.30
2018-05-09T12:56:48.302Z,30.10
2018-05-09T12:59:18.138Z,30.20
2018-05-09T13:01:47.565Z,30.30
2018-05-09T13:04:17.045Z,30.20
2018-05-09T13:06:46.476Z,30.20
2018-05-09T13:09:15.912Z,30.20
2018-05-09T13:11:45.098Z,30.10
2018-05-09T13:14:14.632Z,30.20
2018-05-09T13:16:44.100Z,30.30
2018-05-09T13:19:13.557Z,30.40
2018-05-09T13:21:43.009Z,30.60
2018-05-09T13:24:12.837Z,30.80
2018-05-09T13:26:42.717Z,30.80
2018-05-09T13:29:12.177Z,30.80
2018-05-09T13:31:42.020Z,30.50
2018-05-09T13:34:11.509Z,30.50
2018-05-09T13:36:41.255Z,30.40
2018-05-09T13:39:10.696Z,30.40
2018-05-09T13:41:40.166Z,30.20
2018-05-09T13:44:09.625Z,29.90
2018-05-09T13:46:39.513Z,30.10
2018-05-09T13:49:08.775Z,30.10
2018-05-09T13:51:38.772Z,30.40
2018-05-09T13:54:08.211Z,30.40
2018-05-09T13:56:37.657Z,30.60
2018-05-09T13:59:07.104Z,30.90
2018-05-09T14:01:36.546Z,30.90
2018-05-09T14:04:06.010Z,30.50
2018-05-09T14:06:35.863Z,30.80
2018-05-09T14:09:04.840Z,30.80
2018-05-09T14:11:35.264Z,31.50
2018-05-09T14:14:04.393Z,31.50
2018-05-09T14:16:33.867Z,31.90
2018-05-09T14:19:03.350Z,32.20
2018-05-09T14:21:33.201Z,32.60
2018-05-09T14:24:02.640Z,32.60
2018-05-09T14:26:31.840Z,32.60
2018-05-09T14:29:01.290Z,32.50
2018-05-09T14:31:30.880Z,32.60
2018-05-09T14:34:00.337Z,32.70
2018-05-09T14:36:29.537Z,32.80
2018-05-09T14:38:58.993Z,33.50
2018-05-09T14:41:28.838Z,33.80
2018-05-09T14:43:57.997Z,33.80
2018-05-09T14:46:27.448Z,34.30
2018-05-09T14:48:56.885Z,35.00
2018-05-09T14:51:26.729Z,36.00
2018-05-09T14:53:56.190Z,36.00
2018-05-09T14:56:26.153Z,36.60
2018-05-09T14:58:57.932Z,37.30
2018-05-09T15:01:30.401Z,37.40
2018-05-09T15:04:00.852Z,37.40
2018-05-09T15:06:29.705Z,37.10
2018-05-09T15:08:59.169Z,36.60
2018-05-09T15:11:29.204Z,35.60
2018-05-09T15:13:58.693Z,34.60
2018-05-09T15:16:28.684Z,35.10
2018-05-09T15:18:58.565Z,35.70
2018-05-09T15:21:28.020Z,35.70
2018-05-09T15:23:57.472Z,35.20
2018-05-09T15:26:26.607Z,34.20
2018-05-09T15:28:56.038Z,34.10
2018-05-09T15:31:25.518Z,34.50
2018-05-09T15:33:54.952Z,35.00
2018-05-09T15:36:24.407Z,35.90
2018-05-09T15:38:54.100Z,36.80
2018-05-09T15:41:23.337Z,37.60
2018-05-09T15:43:52.803Z,38.20
2018-05-09T15:46:22.669Z,39.10
2018-05-09T15:48:52.148Z,39.10
2018-05-09T15:51:21.611Z,38.90
2018-05-09T15:53:51.070Z,37.80
2018-05-09T15:56:20.679Z,36.10
2018-05-09T15:58:50.144Z,36.00
2018-05-09T16:01:19.824Z,36.20
2018-05-09T16:03:48.977Z,35.50
2018-05-09T16:06:18.339Z,34.40
2018-05-09T16:08:48.403Z,34.20
2018-05-09T16:11:17.900Z,35.30
2018-05-09T16:13:47.060Z,36.60
2018-05-09T16:16:16.342Z,37.80
2018-05-09T16:18:45.530Z,38.90
2018-05-09T16:21:14.967Z,39.90
2018-05-09T16:23:44.410Z,40.30
2018-05-09T16:26:13.870Z,40.20
2018-05-09T16:28:43.724Z,39.40
2018-05-09T16:31:12.892Z,39.30
2018-05-09T16:33:49.199Z,39.70
2018-05-09T16:36:18.364Z,39.70
2018-05-09T16:38:47.998Z,40.40
2018-05-09T16:41:17.104Z,40.60
2018-05-09T16:43:46.578Z,40.80
2018-05-09T16:46:16.039Z,40.60
2018-05-09T16:48:45.826Z,37.00
2018-05-09T16:51:15.264Z,37.00
2018-05-09T16:53:44.731Z,36.10
2018-05-09T16:56:14.609Z,38.00
2018-05-09T16:58:43.792Z,38.10
2018-05-09T17:01:12.948Z,38.80
2018-05-09T17:03:42.181Z,38.30
2018-05-09T17:06:11.634Z,37.00
2018-05-09T17:08:41.489Z,35.30
2018-05-09T17:11:10.676Z,35.40
2018-05-09T17:13:51.207Z,36.60
2018-05-09T17:16:22.344Z,36.60
2018-05-09T17:18:51.535Z,37.50
2018-05-09T17:21:35.260Z,38.50
2018-05-09T17:24:04.241Z,39.50
2018-05-09T17:26:33.852Z,40.10
2018-05-09T17:29:03.309Z,40.20
2018-05-09T17:31:32.889Z,40.10
2018-05-09T17:34:02.333Z,40.20
2018-05-09T17:36:31.777Z,39.90
2018-05-09T17:39:01.656Z,39.70
2018-05-09T17:41:30.174Z,39.70
2018-05-09T17:43:59.752Z,38.30
2018-05-09T17:46:29.268Z,38.20
2018-05-09T17:48:59.573Z,36.90
2018-05-09T17:51:29.080Z,36.90
2018-05-09T17:53:58.546Z,35.20
2018-05-09T17:56:28.137Z,33.60
2018-05-09T17:58:57.936Z,31.70
2018-05-09T18:01:28.194Z,31.60
2018-05-09T18:03:57.710Z,31.10
2018-05-09T18:06:27.047Z,30.30
2018-05-09T18:08:56.598Z,29.80
2018-05-09T18:11:26.052Z,29.80
2018-05-09T18:13:55.265Z,29.60
2018-05-09T18:16:24.752Z,29.00
2018-05-09T18:18:54.576Z,28.50
2018-05-09T18:21:24.472Z,28.10
2018-05-09T18:23:53.951Z,28.10
2018-05-09T18:26:23.393Z,27.70
2018-05-09T18:28:52.616Z,27.40
2018-05-09T18:31:22.061Z,27.20
2018-05-09T18:33:51.922Z,26.90
2018-05-09T18:36:21.121Z,26.90
2018-05-09T18:38:51.317Z,26.70
2018-05-09T18:41:20.764Z,26.60
2018-05-09T18:43:51.565Z,26.20
2018-05-09T18:46:21.076Z,26.20
2018-05-09T18:48:50.761Z,25.90
2018-05-09T18:51:20.614Z,25.60
2018-05-09T18:53:49.802Z,25.60
2018-05-09T18:56:19.233Z,25.40
2018-05-09T18:58:49.105Z,25.10
2018-05-09T19:01:18.557Z,25.20
2018-05-09T19:03:48.038Z,25.00
2018-05-09T19:06:17.505Z,24.80
2018-05-09T19:08:46.982Z,24.70
2018-05-09T19:11:16.449Z,24.60
2018-05-09T19:14:06.097Z,24.50
2018-05-09T19:16:35.572Z,24.40
2018-05-09T19:19:05.409Z,24.10
2018-05-09T19:21:34.859Z,24.30
2018-05-09T19:24:04.313Z,24.10
2018-05-09T19:26:33.479Z,24.00
2018-05-09T19:29:02.912Z,23.90
2018-05-09T19:31:32.121Z,23.90
2018-05-09T19:36:58.930Z,23.70
2018-05-09T19:39:28.521Z,23.60
2018-05-09T19:41:57.717Z,23.60
2018-05-09T19:44:26.865Z,23.50
2018-05-09T19:46:56.061Z,23.40
2018-05-09T19:49:25.533Z,23.30
2018-05-09T19:51:54.686Z,23.20
2018-05-09T19:54:23.908Z,23.20
2018-05-09T19:56:52.749Z,23.10
2018-05-09T19:59:22.374Z,23.00
2018-05-09T20:01:52.902Z,22.90
2018-05-09T20:04:22.073Z,22.90
2018-05-09T20:06:51.265Z,22.80
2018-05-09T20:09:21.118Z,22.70
2018-05-09T20:11:50.563Z,22.70
2018-05-09T20:14:19.736Z,22.70
2018-05-09T20:16:49.625Z,22.50
2018-05-09T20:19:18.773Z,22.50
2018-05-09T20:21:47.961Z,22.40
2018-05-09T20:24:17.549Z,22.30
2018-05-09T20:26:46.702Z,22.30
2018-05-09T20:29:16.264Z,22.10
2018-05-09T20:31:56.470Z,22.10
2018-05-09T20:34:25.653Z,22.00
2018-05-09T20:36:54.813Z,21.90
2018-05-09T20:39:24.401Z,21.60
2018-05-09T20:41:53.920Z,21.70
2018-05-09T20:44:23.219Z,21.50
2018-05-09T20:46:52.369Z,21.50
2018-05-09T20:49:21.221Z,21.50
2018-05-09T20:51:51.546Z,21.40
2018-05-09T20:54:21.321Z,21.30
2018-05-09T20:56:50.501Z,21.30
2018-05-09T20:59:19.664Z,21.20
2018-05-09T21:01:48.183Z,21.10
2018-05-09T21:04:17.040Z,21.00
2018-05-09T21:06:46.200Z,20.80
2018-05-09T21:09:15.407Z,20.80
2018-05-09T21:11:56.055Z,20.80
2018-05-09T21:14:25.256Z,20.70
2018-05-09T21:16:54.595Z,20.60
2018-05-09T21:19:23.757Z,20.50
2018-05-09T21:21:52.915Z,20.40
2018-05-09T21:24:22.073Z,20.30
2018-05-09T21:26:51.313Z,20.10
2018-05-09T21:29:20.759Z,20.10
2018-05-09T21:31:49.909Z,20.10
2018-05-09T21:34:19.573Z,20.00
2018-05-09T21:36:48.740Z,20.00
2018-05-09T21:39:17.920Z,19.90
2018-05-09T21:41:47.092Z,19.80
2018-05-09T21:44:16.904Z,19.60
2018-05-09T21:46:46.349Z,19.70
2018-05-09T21:49:15.501Z,19.60
2018-05-09T21:51:44.950Z,19.50
2018-05-09T21:54:14.682Z,19.40
2018-05-09T21:56:43.853Z,19.40
2018-05-09T21:59:15.221Z,19.30
2018-05-09T22:01:44.385Z,19.30
2018-05-09T22:04:14.901Z,19.20
2018-05-09T22:06:44.333Z,19.20
2018-05-09T22:09:13.772Z,19.20
2018-05-09T22:11:43.230Z,19.20
2018-05-09T22:14:12.395Z,19.60
2018-05-09T22:16:41.583Z,20.00
2018-05-09T22:19:11.049Z,20.00
2018-05-09T22:21:40.626Z,19.60
2018-05-09T22:24:10.101Z,19.60
2018-05-09T22:26:39.255Z,19.40
2018-05-09T22:29:08.519Z,19.20
2018-05-09T22:31:37.961Z,19.10
2018-05-09T22:34:07.150Z,18.90
2018-05-09T22:36:36.585Z,18.80
2018-05-09T22:39:04.844Z,18.70
2018-05-09T22:41:34.068Z,18.50
2018-05-09T22:44:03.248Z,18.50
2018-05-09T22:46:32.723Z,18.50
2018-05-09T22:49:02.210Z,18.40
2018-05-09T22:51:31.394Z,18.30
2018-05-09T22:54:00.550Z,18.20
2018-05-09T22:56:30.109Z,18.20
2018-05-09T22:58:59.296Z,18.20
2018-05-09T23:01:28.529Z,18.10
2018-05-09T23:03:58.369Z,18.00
2018-05-09T23:06:28.240Z,17.90
2018-05-09T23:08:57.686Z,18.00
2018-05-09T23:11:27.165Z,17.90
2018-05-09T23:13:56.628Z,17.80
2018-05-09T23:16:26.062Z,17.70
2018-05-09T23:18:55.513Z,17.70
2018-05-09T23:21:24.707Z,17.60
2018-05-09T23:23:54.592Z,17.50
2018-05-09T23:26:24.260Z,17.40
2018-05-09T23:28:54.158Z,17.40
2018-05-09T23:31:23.592Z,17.50
2018-05-09T23:33:52.829Z,17.30
2018-05-09T23:36:22.665Z,17.20
2018-05-09T23:38:52.126Z,17.10
2018-05-09T23:41:21.561Z,17.10
2018-05-09T23:43:51.026Z,17.20
2018-05-09T23:46:20.898Z,17.10
2018-05-09T23:48:50.353Z,17.20
2018-05-09T23:51:19.839Z,17.10
2018-05-09T23:53:49.293Z,17.00
2018-05-09T23:56:18.764Z,17.00
2018-05-09T23:58:48.206Z,16.90
